createdAt,value
2023-04-20T00:02:50.631Z,64.58
2023-04-20T00:05:53.461Z,64.19
2023-04-20T00:08:55.982Z,63.89
2023-04-20T00:11:59.830Z,64.16
2023-04-20T00:15:02.249Z,64.34
2023-04-20T00:18:05.050Z,64.80
2023-04-20T00:21:07.677Z,65.20
2023-04-20T00:24:10.428Z,66.15
2023-04-20T00:27:14.273Z,66.48
2023-04-20T00:30:16.670Z,66.34
2023-04-20T00:33:19.333Z,66.68
2023-04-20T00:36:21.905Z,66.47
2023-04-20T00:39:24.488Z,67.05
2023-04-20T00:42:28.349Z,67.33
2023-04-20T00:45:30.763Z,67.55
2023-04-20T00:48:33.225Z,66.80
2023-04-20T00:51:36.766Z,66.77
2023-04-20T00:54:40.038Z,67.13
2023-04-20T00:57:44.252Z,67.50
2023-04-20T01:00:46.759Z,67.27
2023-04-20T01:03:49.597Z,66.93
2023-04-20T01:06:52.264Z,67.21
2023-04-20T01:09:54.738Z,67.70
2023-04-20T01:12:58.627Z,68.06
2023-04-20T01:16:01.279Z,68.77
2023-04-20T01:19:04.283Z,68.96
2023-04-20T01:22:07.930Z,69.19
2023-04-20T01:25:12.029Z,69.76
2023-04-20T01:28:14.584Z,69.73
2023-04-20T01:31:17.215Z,69.83
2023-04-20T01:34:19.868Z,70.32
2023-04-20T01:37:22.417Z,69.94
2023-04-20T01:40:26.299Z,70.53
2023-04-20T01:43:28.887Z,70.35
2023-04-20T01:46:31.504Z,70.32
2023-04-20T01:49:34.041Z,70.08
2023-04-20T01:52:36.609Z,70.53
2023-04-20T01:55:41.109Z,71.33
2023-04-20T01:58:43.599Z,70.84
2023-04-20T02:01:46.120Z,71.03
2023-04-20T02:04:48.740Z,71.43
2023-04-20T02:07:51.322Z,71.29
2023-04-20T02:10:55.284Z,71.50
2023-04-20T02:13:57.817Z,72.11
2023-04-20T02:17:00.910Z,71.48
2023-04-20T02:20:05.815Z,71.32
2023-04-20T02:23:08.379Z,71.12
2023-04-20T02:26:12.205Z,72.05
2023-04-20T02:29:14.568Z,72.04
2023-04-20T02:32:17.126Z,72.37
2023-04-20T02:35:19.853Z,72.19
2023-04-20T02:38:22.353Z,72.10
2023-04-20T02:41:26.259Z,71.75
2023-04-20T02:44:28.992Z,72.32
2023-04-20T02:47:31.676Z,72.36
2023-04-20T02:50:35.072Z,73.03
2023-04-20T02:53:37.601Z,73.26
2023-04-20T02:56:41.529Z,73.55
2023-04-20T02:59:44.197Z,73.61
2023-04-20T03:02:46.892Z,74.05
2023-04-20T03:05:49.488Z,74.24
2023-04-20T03:08:51.986Z,74.32
2023-04-20T03:12:40.857Z,73.98
2023-04-20T03:15:47.601Z,73.52
2023-04-20T03:26:11.034Z,73.69
2023-04-20T03:29:55.880Z,73.94
2023-04-20T03:33:14.452Z,74.03
2023-04-20T03:36:45.797Z,74.17
2023-04-20T03:39:48.590Z,74.39
2023-04-20T03:42:51.279Z,74.74
2023-04-20T03:45:56.459Z,74.84
2023-04-20T03:48:59.017Z,74.41
2023-04-20T03:52:01.575Z,75.07
2023-04-20T03:55:04.565Z,75.08
2023-04-20T03:58:07.626Z,75.58
2023-04-20T04:01:13.227Z,74.80
2023-04-20T04:04:15.994Z,74.91
2023-04-20T04:07:18.675Z,74.94
2023-04-20T04:10:21.351Z,74.78
2023-04-20T04:13:23.877Z,74.64
2023-04-20T04:16:27.795Z,75.05
2023-04-20T04:19:30.402Z,75.25
2023-04-20T04:22:33.153Z,75.76
2023-04-20T04:25:38.975Z,76.40
2023-04-20T04:28:41.956Z,76.50
2023-04-20T04:31:45.977Z,76.27
2023-04-20T04:34:48.820Z,75.67
2023-04-20T04:37:52.643Z,75.45
2023-04-20T04:40:56.419Z,75.33
2023-04-20T04:43:59.395Z,75.02
2023-04-20T04:47:05.804Z,75.24
2023-04-20T04:50:10.360Z,75.75
2023-04-20T04:53:12.905Z,75.86
2023-04-20T04:56:16.000Z,75.43
2023-04-20T04:59:18.960Z,74.81
2023-04-20T05:02:23.160Z,74.16
2023-04-20T05:05:26.601Z,73.59
2023-04-20T05:08:29.192Z,73.92
2023-04-20T05:11:32.732Z,73.65
2023-04-20T05:14:35.359Z,73.35
2023-04-20T05:17:39.479Z,72.53
2023-04-20T05:20:42.413Z,72.58
2023-04-20T05:23:45.122Z,72.27
2023-04-20T05:26:47.787Z,72.00
2023-04-20T05:29:50.854Z,72.13
2023-04-20T05:32:55.101Z,71.66
2023-04-20T05:35:58.012Z,71.31
2023-04-20T05:39:00.856Z,71.27
2023-04-20T05:42:03.457Z,70.84
2023-04-20T05:45:07.157Z,70.73
2023-04-20T05:48:11.635Z,68.97
2023-04-20T05:51:14.296Z,66.99
2023-04-20T05:54:16.870Z,66.64
2023-04-20T05:57:19.513Z,65.57
2023-04-20T06:00:25.768Z,65.36
2023-04-20T06:03:30.483Z,65.20
2023-04-20T06:06:33.370Z,64.52
2023-04-20T06:09:35.904Z,63.56
2023-04-20T06:12:38.618Z,64.29
2023-04-20T06:15:41.388Z,63.56
2023-04-20T06:18:45.793Z,63.34
2023-04-20T06:21:48.475Z,62.33
2023-04-20T06:24:51.382Z,61.78
2023-04-20T06:27:54.170Z,60.99
2023-04-20T06:30:56.970Z,61.77
2023-04-20T06:37:27.943Z,60.73
2023-04-20T06:40:30.970Z,60.60
2023-04-20T06:43:33.638Z,60.36
2023-04-20T06:46:36.488Z,59.30
2023-04-20T06:49:40.381Z,58.96
2023-04-20T06:52:43.019Z,58.76
2023-04-20T06:55:45.539Z,57.86
2023-04-20T06:58:48.789Z,57.52
2023-04-20T07:01:52.173Z,57.53
2023-04-20T07:05:01.778Z,56.96
2023-04-20T07:08:04.728Z,56.96
2023-04-20T07:11:07.391Z,55.29
2023-04-20T07:14:10.154Z,55.29
2023-04-20T07:17:12.930Z,55.24
2023-04-20T07:20:16.918Z,56.05
2023-04-20T07:23:20.281Z,56.22
2023-04-20T07:26:23.154Z,56.68
2023-04-20T07:29:25.773Z,54.32
2023-04-20T07:32:28.571Z,52.91
2023-04-20T07:35:32.863Z,50.74
2023-04-20T07:38:35.564Z,50.49
2023-04-20T07:41:38.171Z,49.35
2023-04-20T07:44:41.020Z,48.12
2023-04-20T07:47:47.187Z,48.41
2023-04-20T07:50:51.336Z,48.08
2023-04-20T07:53:54.009Z,47.93
2023-04-20T07:56:56.758Z,47.14
2023-04-20T07:59:59.469Z,45.81
2023-04-20T08:03:02.192Z,44.69
2023-04-20T08:06:06.665Z,45.08
2023-04-20T08:09:13.469Z,44.28
2023-04-20T08:12:16.084Z,45.19
2023-04-20T08:15:18.788Z,45.99
2023-04-20T08:18:21.589Z,47.06
2023-04-20T08:21:26.564Z,48.79
2023-04-20T08:24:29.310Z,49.13
2023-04-20T08:27:32.111Z,49.14
2023-04-20T08:30:34.886Z,50.17
2023-04-20T08:33:37.513Z,50.98
2023-04-20T08:36:41.651Z,51.53
2023-04-20T08:39:44.175Z,52.75
2023-04-20T08:42:46.942Z,53.29
2023-04-20T08:45:51.729Z,52.60
2023-04-20T08:48:55.778Z,52.40
2023-04-20T08:51:59.688Z,52.12
2023-04-20T08:55:02.610Z,52.71
2023-04-20T08:58:05.637Z,52.53
2023-04-20T09:01:08.491Z,52.33
2023-04-20T09:04:19.125Z,52.41
2023-04-20T09:07:23.562Z,52.57
2023-04-20T09:10:27.026Z,51.78
2023-04-20T09:13:29.902Z,52.04
2023-04-20T09:16:32.958Z,51.93
2023-04-20T09:19:35.984Z,52.52
2023-04-20T09:22:40.167Z,52.62
2023-04-20T09:25:43.573Z,52.29
2023-04-20T09:28:46.226Z,52.68
2023-04-20T09:31:49.538Z,52.04
2023-04-20T09:34:52.352Z,51.29
2023-04-20T09:37:56.386Z,51.12
2023-04-20T09:41:01.785Z,50.55
2023-04-20T09:44:04.777Z,51.44
2023-04-20T09:47:07.655Z,52.24
2023-04-20T09:50:24.635Z,52.49
2023-04-20T09:53:32.088Z,53.03
2023-04-20T09:56:36.172Z,53.46
2023-04-20T09:59:39.872Z,53.65
2023-04-20T10:02:44.035Z,53.25
2023-04-20T10:05:46.837Z,52.87
2023-04-20T10:08:51.961Z,53.13
2023-04-20T10:11:56.211Z,52.95
2023-04-20T10:15:01.371Z,53.02
2023-04-20T10:18:04.058Z,52.20
2023-04-20T10:21:09.791Z,51.85
2023-04-20T10:24:13.852Z,52.18
2023-04-20T10:27:20.307Z,51.09
2023-04-20T10:30:24.281Z,52.31
2023-04-20T10:33:26.879Z,53.26
2023-04-20T10:36:32.208Z,54.24
2023-04-20T10:39:37.775Z,55.09
2023-04-20T10:42:44.340Z,56.03
2023-04-20T10:45:47.009Z,56.04
2023-04-20T10:48:57.138Z,56.16
2023-04-20T10:51:59.971Z,57.48
2023-04-20T10:55:05.428Z,57.59
2023-04-20T10:58:08.094Z,57.21
2023-04-20T11:01:11.022Z,57.36
2023-04-20T11:04:16.226Z,57.62
2023-04-20T11:07:20.938Z,57.60
2023-04-20T11:10:26.696Z,56.94
2023-04-20T11:13:30.770Z,57.81
2023-04-20T11:16:46.859Z,58.04
2023-04-20T11:19:53.378Z,56.58
2023-04-20T11:22:58.623Z,57.42
2023-04-20T11:26:02.651Z,56.83
2023-04-20T11:29:05.403Z,56.41
2023-04-20T11:32:10.204Z,55.36
2023-04-20T11:35:13.450Z,55.79
2023-04-20T11:38:18.812Z,56.94
2023-04-20T11:41:23.181Z,56.89
2023-04-20T11:44:26.356Z,57.16
2023-04-20T11:47:28.935Z,56.24
2023-04-20T11:50:31.544Z,56.69
2023-04-20T11:53:34.756Z,57.63
2023-04-20T11:56:38.887Z,58.50
2023-04-20T11:59:42.906Z,59.14
2023-04-20T12:02:45.710Z,58.01
2023-04-20T12:05:48.687Z,58.62
2023-04-20T12:08:51.855Z,58.88
2023-04-20T12:11:55.909Z,58.81
2023-04-20T12:14:58.788Z,59.08
2023-04-20T12:18:01.479Z,59.18
2023-04-20T12:21:04.271Z,58.43
2023-04-20T12:24:07.954Z,57.81
2023-04-20T12:27:11.829Z,56.93
2023-04-20T12:30:16.577Z,56.78
2023-04-20T12:33:19.237Z,57.35
2023-04-20T12:36:21.930Z,57.38
2023-04-20T12:39:24.994Z,57.22
2023-04-20T12:42:28.961Z,56.67
2023-04-20T12:45:31.963Z,55.89
2023-04-20T12:48:34.508Z,56.14
2023-04-20T12:51:37.704Z,55.97
2023-04-20T12:54:42.108Z,55.60
2023-04-20T12:57:47.344Z,55.44
2023-04-20T13:00:50.081Z,56.13
2023-04-20T13:03:52.940Z,56.18
2023-04-20T13:06:55.784Z,54.30
2023-04-20T13:09:58.680Z,55.04
2023-04-20T13:13:02.793Z,56.25
2023-04-20T13:16:05.837Z,55.74
2023-04-20T13:19:08.408Z,55.56
2023-04-20T13:22:13.243Z,56.40
2023-04-20T13:25:18.520Z,56.89
2023-04-20T13:28:22.481Z,57.14
2023-04-20T13:31:25.222Z,56.65
2023-04-20T13:34:27.920Z,57.12
2023-04-20T13:37:33.151Z,56.24
2023-04-20T13:40:35.787Z,55.88
2023-04-20T13:43:39.698Z,54.78
2023-04-20T13:46:42.994Z,55.21
2023-04-20T13:49:45.654Z,56.53
2023-04-20T13:52:48.203Z,56.55
2023-04-20T13:55:51.057Z,55.63
2023-04-20T13:58:55.421Z,56.48
2023-04-20T14:01:58.206Z,55.27
2023-04-20T14:05:00.842Z,55.26
2023-04-20T14:08:03.806Z,56.15
2023-04-20T14:11:06.747Z,56.43
2023-04-20T14:14:10.903Z,56.38
2023-04-20T14:17:13.801Z,57.67
2023-04-20T14:20:16.868Z,57.83
2023-04-20T14:23:19.501Z,58.04
2023-04-20T14:26:22.071Z,58.28
2023-04-20T14:29:26.077Z,58.52
2023-04-20T14:32:28.642Z,58.92
2023-04-20T14:35:31.339Z,59.10
2023-04-20T14:38:33.897Z,58.92
2023-04-20T14:41:36.792Z,60.20
2023-04-20T14:44:40.700Z,61.30
2023-04-20T14:47:43.867Z,61.68
2023-04-20T14:50:46.442Z,62.61
2023-04-20T14:53:49.017Z,63.05
2023-04-20T14:56:51.854Z,63.60
2023-04-20T14:59:55.763Z,64.56
2023-04-20T15:02:59.495Z,64.89
2023-04-20T15:06:03.547Z,66.18
2023-04-20T15:09:06.273Z,66.58
2023-04-20T15:12:09.123Z,66.66
2023-04-20T15:15:13.202Z,67.58
2023-04-20T15:18:15.838Z,68.57
2023-04-20T15:21:18.472Z,69.14
2023-04-20T15:24:21.054Z,68.74
2023-04-20T15:27:23.810Z,68.99
2023-04-20T15:30:27.752Z,70.05
2023-04-20T15:33:30.366Z,70.49
2023-04-20T15:36:33.048Z,71.31
2023-04-20T15:39:35.637Z,71.57
2023-04-20T15:42:38.305Z,71.53
2023-04-20T15:45:44.212Z,70.90
2023-04-20T15:48:47.374Z,70.84
2023-04-20T15:51:49.860Z,70.39
2023-04-20T15:54:52.452Z,69.98
2023-04-20T15:57:58.054Z,69.63
2023-04-20T16:01:02.157Z,70.13
2023-04-20T16:04:05.182Z,70.79
2023-04-20T16:07:08.866Z,70.20
2023-04-20T16:10:12.043Z,70.37
2023-04-20T16:13:14.600Z,70.16
2023-04-20T16:16:18.898Z,69.65
2023-04-20T16:19:21.702Z,70.39
2023-04-20T16:22:24.755Z,70.25
2023-04-20T16:25:28.391Z,69.83
2023-04-20T16:28:31.013Z,70.34
2023-04-20T16:31:36.663Z,69.24
2023-04-20T16:34:39.458Z,69.75
2023-04-20T16:37:41.959Z,70.11
2023-04-20T16:40:44.748Z,69.93
2023-04-20T16:43:47.563Z,70.19
2023-04-20T16:46:52.190Z,69.97
2023-04-20T16:49:54.851Z,70.25
2023-04-20T16:52:57.456Z,70.86
2023-04-20T16:56:00.085Z,71.49
2023-04-20T16:59:03.173Z,71.20
2023-04-20T17:02:07.751Z,70.90
2023-04-20T17:05:11.250Z,71.73
2023-04-20T17:08:14.052Z,71.61
2023-04-20T17:11:19.257Z,72.04
2023-04-20T17:14:22.216Z,72.49
2023-04-20T17:17:28.252Z,72.42
2023-04-20T17:20:31.390Z,72.04
2023-04-20T17:23:35.161Z,71.84
2023-04-20T17:26:37.758Z,71.45
2023-04-20T17:29:42.981Z,70.74
2023-04-20T17:32:47.211Z,71.10
2023-04-20T17:35:49.933Z,71.98
2023-04-20T17:38:52.517Z,71.46
2023-04-20T17:41:55.629Z,71.80
2023-04-20T17:44:58.460Z,71.50
2023-04-20T17:48:02.522Z,71.48
2023-04-20T17:51:05.336Z,71.66
2023-04-20T17:54:09.593Z,71.98
2023-04-20T17:57:14.032Z,71.96
2023-04-20T18:00:18.671Z,72.10
2023-04-20T18:03:22.881Z,72.12
2023-04-20T18:06:25.994Z,72.69
2023-04-20T18:09:28.724Z,72.45
2023-04-20T18:12:31.546Z,72.51
2023-04-20T18:15:34.043Z,72.41
2023-04-20T18:18:38.137Z,73.55
2023-04-20T18:21:40.911Z,72.85
2023-04-20T18:24:43.545Z,72.65
2023-04-20T18:27:46.192Z,72.45
2023-04-20T18:30:48.929Z,73.18
2023-04-20T18:33:52.798Z,72.66
2023-04-20T18:36:55.469Z,72.98
2023-04-20T18:39:59.163Z,73.25
2023-04-20T18:43:01.516Z,73.09
2023-04-20T18:46:04.160Z,73.32
2023-04-20T18:49:08.132Z,73.32
2023-04-20T18:52:10.765Z,73.26
2023-04-20T18:55:13.304Z,73.25
2023-04-20T18:58:15.767Z,72.35
2023-04-20T19:01:18.473Z,71.89
2023-04-20T19:04:22.945Z,71.56
2023-04-20T19:07:26.059Z,71.67
2023-04-20T19:10:28.671Z,72.40
2023-04-20T19:13:31.208Z,72.75
2023-04-20T19:16:34.655Z,72.44
2023-04-20T19:19:38.735Z,73.37
2023-04-20T19:22:41.291Z,73.93
2023-04-20T19:25:43.946Z,73.91
2023-04-20T19:28:46.933Z,74.00
2023-04-20T19:31:49.457Z,73.91
2023-04-20T19:34:57.216Z,74.34
2023-04-20T19:38:00.200Z,74.16
2023-04-20T19:41:03.013Z,74.88
2023-04-20T19:44:06.347Z,74.60
2023-04-20T19:47:09.228Z,74.63
2023-04-20T19:50:13.928Z,74.48
2023-04-20T19:53:16.535Z,74.52
2023-04-20T19:56:19.588Z,74.75
2023-04-20T19:59:23.362Z,75.00
2023-04-20T20:02:26.294Z,74.67
2023-04-20T20:05:30.279Z,74.62
2023-04-20T20:08:33.040Z,74.27
2023-04-20T20:11:36.085Z,75.10
2023-04-20T20:14:38.854Z,74.50
2023-04-20T20:17:41.703Z,74.56
2023-04-20T20:20:45.745Z,74.33
2023-04-20T20:23:48.294Z,74.40
2023-04-20T20:26:50.832Z,74.41
2023-04-20T20:29:53.372Z,74.71
2023-04-20T20:32:58.768Z,74.89
2023-04-20T20:36:04.247Z,75.17
2023-04-20T20:39:07.748Z,75.38
2023-04-20T20:42:10.322Z,75.72
2023-04-20T20:45:13.909Z,76.08
2023-04-20T20:48:16.584Z,76.32
2023-04-20T20:51:20.405Z,76.13
2023-04-20T20:54:23.509Z,76.17
2023-04-20T20:57:26.135Z,76.41
2023-04-20T21:00:28.939Z,76.23
2023-04-20T21:03:31.757Z,75.68
2023-04-20T21:06:36.356Z,75.31
2023-04-20T21:09:39.700Z,75.02
2023-04-20T21:12:42.911Z,74.99
2023-04-20T21:15:45.627Z,75.14
2023-04-20T21:18:48.278Z,75.49
2023-04-20T21:21:52.367Z,75.04
2023-04-20T21:24:54.907Z,74.58
2023-04-20T21:27:57.521Z,74.14
2023-04-20T21:31:00.248Z,74.80
2023-04-20T21:34:02.789Z,74.88
2023-04-20T21:37:07.086Z,75.86
2023-04-20T21:40:11.038Z,76.27
2023-04-20T21:43:13.896Z,76.72
2023-04-20T21:46:16.762Z,77.46
2023-04-20T21:49:19.710Z,76.99
2023-04-20T21:52:24.016Z,78.05
2023-04-20T21:55:26.457Z,78.68
2023-04-20T21:58:29.039Z,79.79
2023-04-20T22:01:31.594Z,80.05
2023-04-20T22:04:34.392Z,80.76
2023-04-20T22:07:38.463Z,81.71
2023-04-20T22:10:41.007Z,81.69
2023-04-20T22:13:44.530Z,82.25
2023-04-20T22:16:47.884Z,82.35
2023-04-20T22:19:50.829Z,83.07
2023-04-20T22:22:54.838Z,83.07
2023-04-20T22:25:57.540Z,83.42
2023-04-20T22:29:00.369Z,82.84
2023-04-20T22:32:03.089Z,83.09
2023-04-20T22:35:06.559Z,83.30
2023-04-20T22:38:10.383Z,83.08
2023-04-20T22:41:13.890Z,83.87
2023-04-20T22:44:17.869Z,84.10
2023-04-20T22:47:20.559Z,83.62
2023-04-20T22:50:23.290Z,84.23
2023-04-20T22:53:27.549Z,84.16
2023-04-20T22:56:30.305Z,84.49
2023-04-20T22:59:32.878Z,85.33
2023-04-20T23:02:35.618Z,84.72
2023-04-20T23:05:39.057Z,84.98
2023-04-20T23:08:42.971Z,85.08
2023-04-20T23:11:47.068Z,84.88
2023-04-20T23:14:50.774Z,84.62
2023-04-20T23:17:57.300Z,85.24
2023-04-20T23:20:59.918Z,85.39
2023-04-20T23:24:04.077Z,85.40
2023-04-20T23:27:06.694Z,84.35
2023-04-20T23:30:10.331Z,84.25
2023-04-20T23:33:12.986Z,84.51
2023-04-20T23:36:15.800Z,85.15
2023-04-20T23:39:20.301Z,85.77
2023-04-20T23:42:22.994Z,85.15
2023-04-20T23:45:25.610Z,84.74
2023-04-20T23:48:28.162Z,84.78
2023-04-20T23:51:30.811Z,84.67
2023-04-20T23:54:34.836Z,84.24
2023-04-20T23:57:37.321Z,84.75
